Big Bend National Park, TX

08:24 AM CDT del 25 Ottobre 2014 (GMT -0500)
RAWS PANTHER JUNCTION TX US | Change Station
CLOSE
Current Station
Stazione meteo personale
Location: Big Bend National Park, TX
Altitudine: 3750 ft
Stazioni meteo nelle vicinanze

Alt. 3750 ft 29.33 °N, 103.21 °W | Updated 46 minutes ago

Sereno
Sereno
60 °F
Sembra 60 °F
N
3
Vento Variabile Vento da Sud
Gusts 5.0 mph

Oggi
Massima -- | Minima -- °F
--% Possibilità di precip.
Ieri
Massima -- | Minima -- °F
Precip. -- in
8:00 AM 7:12 PM
Luna crescente, 3% visible
Pressione 30.20 in
Visibilità 10.0 miglia
Nuvole Sereno
Punto di rugiada 52 °F
Umidità 74%
Piovosità 0.00 in
Spessore del manto nevoso Non disponibile.
Raggi UV 0 fuori da 12
Polline 6.00 fuori da 12
Qualità dell'aria Non disponibile.
Flu Activity Local Activity
METAR KPRS 251315Z AUTO 02003KT 10SM CLR 17/13 A3020 RMK AO2 T01650125

More Conditions Fewer Conditions

Pressione 30.20 in
Visibilità 10.0 miglia
Nuvole Sereno
Punto di rugiada 52 °F
Umidità 74%
Piovosità 0.00 in
Spessore del manto nevoso Non disponibile.
Raggi UV 0 fuori da 12
Polline 6.00 fuori da 12
Qualità dell'aria Non disponibile.
Flu Activity Local Activity
METAR KPRS 251315Z AUTO 02003KT 10SM CLR 17/13 A3020 RMK AO2 T01650125

More Conditions Fewer Conditions

10-Day Weather Forecast

Almanac

Astronomia

Oct. 25, 2014 Alba Tramonto
Ora attuale 08:00 CDT 19:12 CDT
Crepuscolo civile 07:36 CDT 19:36 CDT
Crepuscolo nautico 07:08 CDT 20:04 CDT
Crepuscolo astronomico 06:40 CDT 20:32 CDT
Luna 09:36 CDT 20:43 CDT
Estensione della luce visibile 12h 00m
Lunghezza del giorno
11h 11m
Tomorrow will be 1m 36s shorter.
Luna crescente, 3% of the Moon is Illuminated
Oggi
Luna crescente
Ott 30
Primo quarto
Nov 6
Luna piena
Nov 14
Ultimo quarto
Nov 22
Nuovo

Gli estremi di oggi

State Highs State Lows

Community

WunderPhotos

Upload Photos

1,764,829 foto caricate!

Nearby

Profondità neve

Stazione Profondità Altitudine
Non sono state evidenziate nuove nevicate

Attività sismica

Città  Distanza Mag. Data & Ora
Non sono state riportate attività sismiche nelle vicinanze.
Minimo Magnitudo Mostrato è 2.5.

Temperature delle acque costiere

Località Temperatura
Nessun dato dalle stazioni

Stazioni meteo nelle vicinanze